CSCL Long Beach — VRCZ7 — position and weather

sailwx.info

Track history (hours):
 
Tides and Currents Weather Stations Pressure Air Temp Water Temp Dewpoint Dewpoint Depression Visibility Wind Speed Wind Dir Waves Ship Positions

CSCL Long Beach

Last reported at 2015-Jan-23 16:17 UTC. Time now 2015-Jan-28 06:31 UTC.
Position N 01°11' E 103°48'.

Length 336.7 m; beam 45.6 m; draft 15 m.

Type: Cargo ship. MMSI: 477883900.

Date/timePositionNaut miles runAvg speedWind from/ knotsBaromVisibWave heightAir tempDewpointWater temp
2015-Jan-23 16:17N 01°11' E 103°48'  
2015-Jan-20 02:18N 22°34' E 114°19'15 8.4
2015-Jan-20 00:31N 22°23' E 114°30'13 6.4
2015-Jan-19 22:27N 22°18' E 114°43'12716.0
2015-Jan-19 14:30N 22°52' E 116°56'1717.9
2015-Jan-19 13:33N 23°02' E 117°11'4117.9
2015-Jan-19 11:17N 23°26' E 117°47'1419.2
2015-Jan-19 10:33N 23°36' E 117°57'2019.8
2015-Jan-19 09:32N 23°51' E 118°12'1919.3
2015-Jan-19 08:33N 24°08' E 118°19'1313.2
2015-Jan-19 07:33N 24°19' E 118°11'9 8.9
2015-Jan-19 06:31N 24°26' E 118°04'3 2.5
2015-Jan-19 05:20N 24°27' E 118°00'0 0.0
2015-Jan-19 04:29N 24°27' E 118°00'0 0.0
2015-Jan-19 01:26N 24°27' E 118°00'0 0.0
2015-Jan-18 23:32N 24°27' E 118°00'0 0.0
2015-Jan-18 22:08N 24°27' E 118°00'0 0.1
2015-Jan-18 21:32N 24°27' E 118°00'0 0.0
2015-Jan-18 20:32N 24°27' E 118°00'0 0.0
2015-Jan-18 19:32N 24°27' E 118°00'0 0.0
2015-Jan-18 18:08N 24°27' E 118°00'0 0.0
2015-Jan-18 17:14N 24°27' E 118°00'0 0.0
2015-Jan-18 15:26N 24°27' E 118°00'5 6.0
2015-Jan-18 14:34N 24°25' E 118°06'9 8.3
2015-Jan-18 13:32N 24°18' E 118°12'8 8.0
2015-Jan-18 12:33N 24°13' E 118°18'1514.6
2015-Jan-18 11:31N 24°13' E 118°34'1616.8
2015-Jan-18 10:33N 24°20' E 118°51'1716.9
2015-Jan-18 09:33N 24°27' E 119°07'1817.7
2015-Jan-18 08:33N 24°38' E 119°23'39118.6
2015-Jan-17 11:33N 30°24' E 122°47'1918.3
2015-Jan-17 10:31N 30°31' E 122°27'1313.2
2015-Jan-17 09:33N 30°33' E 122°12'8 5.3
2015-Jan-17 08:06N 30°37' E 122°04'0 0.0
2015-Jan-17 06:12N 30°37' E 122°04'0 0.0
2015-Jan-17 05:27N 30°37' E 122°04'0 0.0
2015-Jan-17 04:21N 30°37' E 122°04'0 0.0
2015-Jan-17 03:27N 30°37' E 122°04'0 0.0
2015-Jan-17 02:30N 30°37' E 122°04'0 0.0
2015-Jan-17 00:21N 30°37' E 122°04'0 0.0
2015-Jan-16 23:33N 30°37' E 122°04'0 0.0
2015-Jan-16 22:24N 30°37' E 122°04'0 0.0
2015-Jan-16 21:33N 30°37' E 122°04'0 0.0
2015-Jan-16 20:12N 30°37' E 122°04'0 0.0
2015-Jan-16 18:18N 30°37' E 122°04'0 0.0
2015-Jan-16 16:09N 30°37' E 122°04'0 0.0
2015-Jan-16 15:33N 30°37' E 122°04'0 0.0
2015-Jan-16 14:15N 30°37' E 122°04'0 0.0
2015-Jan-16 13:27N 30°37' E 122°04'0 0.0
2015-Jan-16 12:33N 30°37' E 122°04'0 0.0
2015-Jan-16 11:33N 30°37' E 122°04'0 0.0
2015-Jan-16 10:33N 30°37' E 122°04'0 0.0
2015-Jan-16 09:29N 30°37' E 122°04'0 0.0
2015-Jan-16 08:33N 30°37' E 122°04'0 0.5
2015-Jan-16 07:33N 30°37' E 122°04'8 7.7
2015-Jan-16 06:33N 30°34' E 122°12'9 9.2
2015-Jan-16 05:33N 30°32' E 122°23'13 9.0
2015-Jan-16 04:10N 30°29' E 122°37'6 9.9
2015-Jan-16 03:32N 30°25' E 122°42'5 0.4
2015-Jan-15 17:14N 30°22' E 122°46'0 0.0
2015-Jan-15 16:32N 30°22' E 122°46'0 0.0
2015-Jan-15 09:19N 30°22' E 122°46'0 0.0
2015-Jan-15 07:10N 30°22' E 122°46'0 0.0
2015-Jan-15 05:07N 30°22' E 122°46'0 0.0
2015-Jan-15 01:25N 30°22' E 122°46'0 0.0
2015-Jan-14 23:31N 30°22' E 122°46'0 0.0
2015-Jan-14 13:23N 30°22' E 122°46'3110.2
2015-Jan-14 10:22N 29°52' E 122°53'1214.4
2015-Jan-14 09:33N 29°46' E 122°41'1414.2
2015-Jan-14 08:33N 29°42' E 122°26'1312.9
2015-Jan-14 07:33N 29°49' E 122°13'1110.8
2015-Jan-14 06:34N 29°55' E 122°03'7 6.6
2015-Jan-14 05:34N 29°56' E 121°56'0 0.0
2015-Jan-14 04:14N 29°56' E 121°56'0 0.0
2015-Jan-14 01:26N 29°56' E 121°56'0 0.0
2015-Jan-13 23:29N 29°56' E 121°56'0 0.0
2015-Jan-13 21:11N 29°56' E 121°56'0 0.0
2015-Jan-13 18:14N 29°56' E 121°56'  
Track history (hours):
 
Tides and Currents Weather Stations Pressure Air Temp Water Temp Dewpoint Dewpoint Depression Visibility Wind Speed Wind Dir Waves Ship Positions

CSCL Long Beach

Last reported at 2015-Jan-23 16:17 UTC. Time now 2015-Jan-28 06:31 UTC.
Position N 01°11' E 103°48'.

Length 336.7 m; beam 45.6 m; draft 15 m.

Type: Cargo ship. MMSI: 477883900.

Date/timePositionNaut miles runAvg speedWind from/ knotsBaromVisibWave heightAir tempDewpointWater temp
2015-Jan-23 16:17N 01°11' E 103°48'  
2015-Jan-20 02:18N 22°34' E 114°19'15 8.4
2015-Jan-20 00:31N 22°23' E 114°30'13 6.4
2015-Jan-19 22:27N 22°18' E 114°43'12716.0
2015-Jan-19 14:30N 22°52' E 116°56'1717.9
2015-Jan-19 13:33N 23°02' E 117°11'4117.9
2015-Jan-19 11:17N 23°26' E 117°47'1419.2
2015-Jan-19 10:33N 23°36' E 117°57'2019.8
2015-Jan-19 09:32N 23°51' E 118°12'1919.3
2015-Jan-19 08:33N 24°08' E 118°19'1313.2
2015-Jan-19 07:33N 24°19' E 118°11'9 8.9
2015-Jan-19 06:31N 24°26' E 118°04'3 2.5
2015-Jan-19 05:20N 24°27' E 118°00'0 0.0
2015-Jan-19 04:29N 24°27' E 118°00'0 0.0
2015-Jan-19 01:26N 24°27' E 118°00'0 0.0
2015-Jan-18 23:32N 24°27' E 118°00'0 0.0
2015-Jan-18 22:08N 24°27' E 118°00'0 0.1
2015-Jan-18 21:32N 24°27' E 118°00'0 0.0
2015-Jan-18 20:32N 24°27' E 118°00'0 0.0
2015-Jan-18 19:32N 24°27' E 118°00'0 0.0
2015-Jan-18 18:08N 24°27' E 118°00'0 0.0
2015-Jan-18 17:14N 24°27' E 118°00'0 0.0
2015-Jan-18 15:26N 24°27' E 118°00'5 6.0
2015-Jan-18 14:34N 24°25' E 118°06'9 8.3
2015-Jan-18 13:32N 24°18' E 118°12'8 8.0
2015-Jan-18 12:33N 24°13' E 118°18'1514.6
2015-Jan-18 11:31N 24°13' E 118°34'1616.8
2015-Jan-18 10:33N 24°20' E 118°51'1716.9
2015-Jan-18 09:33N 24°27' E 119°07'1817.7
2015-Jan-18 08:33N 24°38' E 119°23'39118.6
2015-Jan-17 11:33N 30°24' E 122°47'1918.3
2015-Jan-17 10:31N 30°31' E 122°27'1313.2
2015-Jan-17 09:33N 30°33' E 122°12'8 5.3
2015-Jan-17 08:06N 30°37' E 122°04'0 0.0
2015-Jan-17 06:12N 30°37' E 122°04'0 0.0
2015-Jan-17 05:27N 30°37' E 122°04'0 0.0
2015-Jan-17 04:21N 30°37' E 122°04'0 0.0
2015-Jan-17 03:27N 30°37' E 122°04'0 0.0
2015-Jan-17 02:30N 30°37' E 122°04'0 0.0
2015-Jan-17 00:21N 30°37' E 122°04'0 0.0
2015-Jan-16 23:33N 30°37' E 122°04'0 0.0
2015-Jan-16 22:24N 30°37' E 122°04'0 0.0
2015-Jan-16 21:33N 30°37' E 122°04'0 0.0
2015-Jan-16 20:12N 30°37' E 122°04'0 0.0
2015-Jan-16 18:18N 30°37' E 122°04'0 0.0
2015-Jan-16 16:09N 30°37' E 122°04'0 0.0
2015-Jan-16 15:33N 30°37' E 122°04'0 0.0
2015-Jan-16 14:15N 30°37' E 122°04'0 0.0
2015-Jan-16 13:27N 30°37' E 122°04'0 0.0
2015-Jan-16 12:33N 30°37' E 122°04'0 0.0
2015-Jan-16 11:33N 30°37' E 122°04'0 0.0
2015-Jan-16 10:33N 30°37' E 122°04'0 0.0
2015-Jan-16 09:29N 30°37' E 122°04'0 0.0
2015-Jan-16 08:33N 30°37' E 122°04'0 0.5
2015-Jan-16 07:33N 30°37' E 122°04'8 7.7
2015-Jan-16 06:33N 30°34' E 122°12'9 9.2
2015-Jan-16 05:33N 30°32' E 122°23'13 9.0
2015-Jan-16 04:10N 30°29' E 122°37'6 9.9
2015-Jan-16 03:32N 30°25' E 122°42'5 0.4
2015-Jan-15 17:14N 30°22' E 122°46'0 0.0
2015-Jan-15 16:32N 30°22' E 122°46'0 0.0
2015-Jan-15 09:19N 30°22' E 122°46'0 0.0
2015-Jan-15 07:10N 30°22' E 122°46'0 0.0
2015-Jan-15 05:07N 30°22' E 122°46'0 0.0
2015-Jan-15 01:25N 30°22' E 122°46'0 0.0
2015-Jan-14 23:31N 30°22' E 122°46'0 0.0
2015-Jan-14 13:23N 30°22' E 122°46'3110.2
2015-Jan-14 10:22N 29°52' E 122°53'1214.4
2015-Jan-14 09:33N 29°46' E 122°41'1414.2
2015-Jan-14 08:33N 29°42' E 122°26'1312.9
2015-Jan-14 07:33N 29°49' E 122°13'1110.8
2015-Jan-14 06:34N 29°55' E 122°03'7 6.6
2015-Jan-14 05:34N 29°56' E 121°56'0 0.0
2015-Jan-14 04:14N 29°56' E 121°56'0 0.0
2015-Jan-14 01:26N 29°56' E 121°56'0 0.0
2015-Jan-13 23:29N 29°56' E 121°56'0 0.0
2015-Jan-13 21:11N 29°56' E 121°56'0 0.0
2015-Jan-13 18:14N 29°56' E 121°56'  

Dump ship's entire track history